createdAt,value
2022-11-05T00:03:01.709Z,109.63
2022-11-05T00:08:17.779Z,101.97
2022-11-05T00:13:32.933Z,107.90
2022-11-05T00:18:29.147Z,103.20
2022-11-05T00:23:43.974Z,110.93
2022-11-05T00:28:43.868Z,108.53
2022-11-05T00:33:41.057Z,108.90
2022-11-05T00:38:37.558Z,106.63
2022-11-05T00:43:52.582Z,103.40
2022-11-05T00:49:07.588Z,102.28
2022-11-05T00:54:03.835Z,104.78
2022-11-05T00:59:00.114Z,101.13
2022-11-05T01:03:56.317Z,100.05
2022-11-05T01:08:52.598Z,95.65
2022-11-05T01:13:48.777Z,95.45
2022-11-05T01:18:44.963Z,95.80
2022-11-05T01:23:41.285Z,94.70
2022-11-05T01:28:37.654Z,99.80
2022-11-05T01:33:33.960Z,99.40
2022-11-05T01:38:30.204Z,94.85
2022-11-05T01:43:26.470Z,101.57
2022-11-05T01:48:22.678Z,100.53
2022-11-05T01:53:21.892Z,97.82
2022-11-05T01:58:20.203Z,100.63
2022-11-05T02:03:17.042Z,94.18
2022-11-05T02:08:19.768Z,101.20
2022-11-05T02:18:41.473Z,104.57
2022-11-05T02:23:40.768Z,102.90
2022-11-05T02:28:37.082Z,103.85
2022-11-05T02:33:43.856Z,103.07
2022-11-05T02:38:49.927Z,108.78
2022-11-05T02:43:51.334Z,110.88
2022-11-05T02:48:55.830Z,108.80
2022-11-05T02:53:54.766Z,108.60
2022-11-05T02:58:50.970Z,104.60
2022-11-05T03:03:49.969Z,103.68
2022-11-05T03:09:04.881Z,104.55
2022-11-05T03:14:21.367Z,101.80
2022-11-05T03:19:27.980Z,100.05
2022-11-05T03:24:26.374Z,96.70
2022-11-05T03:29:24.579Z,94.80
2022-11-05T03:34:24.042Z,95.03
2022-11-05T03:39:24.185Z,104.10
2022-11-05T03:44:24.193Z,99.88
2022-11-05T03:49:34.253Z,99.78
2022-11-05T03:54:30.507Z,102.25
2022-11-05T03:59:27.916Z,102.10
2022-11-05T04:04:24.444Z,100.63
2022-11-05T04:09:39.398Z,98.38
2022-11-05T04:14:35.590Z,100.15
2022-11-05T04:20:03.092Z,95.13
2022-11-05T04:24:59.301Z,92.63
2022-11-05T04:30:14.303Z,94.10
2022-11-05T04:35:10.513Z,90.15
2022-11-05T04:40:07.031Z,95.20
2022-11-05T04:45:03.381Z,91.80
2022-11-05T04:49:59.597Z,93.13
2022-11-05T04:54:55.922Z,90.78
2022-11-05T04:59:52.120Z,87.35
2022-11-05T05:04:48.307Z,86.10
2022-11-05T05:09:44.563Z,90.13
2022-11-05T05:14:40.911Z,87.18
2022-11-05T05:19:57.070Z,87.75
2022-11-05T05:24:54.202Z,85.35
2022-11-05T05:29:50.536Z,92.03
2022-11-05T05:34:46.750Z,96.68
2022-11-05T05:39:44.534Z,92.28
2022-11-05T05:44:40.783Z,91.05
2022-11-05T05:49:37.023Z,88.90
2022-11-05T05:54:37.089Z,83.53
2022-11-05T06:04:32.154Z,78.72
2022-11-05T06:09:28.721Z,80.45
2022-11-05T06:14:24.979Z,76.47
2022-11-05T06:19:21.182Z,79.10
2022-11-05T06:24:17.477Z,76.80
2022-11-05T06:29:13.897Z,76.95
2022-11-05T06:34:10.336Z,83.93
2022-11-05T06:39:11.073Z,80.45
2022-11-05T06:44:07.395Z,78.07
2022-11-05T06:49:03.634Z,78.88
2022-11-05T06:53:59.846Z,79.38
2022-11-05T06:58:56.050Z,74.63
2022-11-05T07:03:52.227Z,79.78
2022-11-05T07:08:48.506Z,78.75
2022-11-05T07:13:44.715Z,81.03
2022-11-05T07:18:41.007Z,80.25
2022-11-05T07:23:37.251Z,79.18
2022-11-05T07:28:33.525Z,76.10
2022-11-05T07:33:35.260Z,78.97
2022-11-05T07:38:32.645Z,80.70
2022-11-05T07:43:29.185Z,78.18
2022-11-05T07:48:25.430Z,73.40
2022-11-05T07:53:21.697Z,76.13
2022-11-05T07:58:18.391Z,73.55
2022-11-05T08:03:16.281Z,67.75
2022-11-05T08:08:19.609Z,69.18
2022-11-05T08:18:16.718Z,64.32
2022-11-05T08:23:14.210Z,56.17
2022-11-05T08:28:11.755Z,53.83
2022-11-05T08:33:12.075Z,53.42
2022-11-05T08:38:10.336Z,48.97
2022-11-05T08:43:07.428Z,47.25
2022-11-05T08:48:04.975Z,45.28
2022-11-05T08:53:01.513Z,40.80
2022-11-05T08:57:59.255Z,42.75
2022-11-05T09:02:57.930Z,43.28
2022-11-05T09:07:59.445Z,39.58
2022-11-05T09:12:57.570Z,37.05
2022-11-05T09:17:54.684Z,34.65
2022-11-05T09:22:51.070Z,34.85
2022-11-05T09:27:47.444Z,34.65
2022-11-05T09:32:43.762Z,27.23
2022-11-05T09:37:40.349Z,26.30
2022-11-05T09:42:41.101Z,25.45
2022-11-05T09:47:40.716Z,23.88
2022-11-05T09:52:37.157Z,23.67
2022-11-05T09:57:43.717Z,20.45
2022-11-05T10:02:48.665Z,20.30
2022-11-05T10:07:49.797Z,21.75
2022-11-05T10:12:49.661Z,21.05
2022-11-05T10:17:50.830Z,20.17
2022-11-05T10:22:49.855Z,18.42
2022-11-05T10:27:53.840Z,18.27
2022-11-05T10:32:53.188Z,16.45
2022-11-05T10:37:50.607Z,15.30
2022-11-05T10:42:54.121Z,15.30
2022-11-05T10:48:05.447Z,13.45
2022-11-05T10:53:04.337Z,13.85
2022-11-05T10:58:11.324Z,16.63
2022-11-05T11:03:27.550Z,13.25
2022-11-05T11:08:24.189Z,13.73
2022-11-05T11:13:25.384Z,14.15
2022-11-05T11:18:27.782Z,12.27
2022-11-05T11:23:24.001Z,12.95
2022-11-05T11:28:40.457Z,12.10
2022-11-05T11:33:37.698Z,13.85
2022-11-05T11:38:35.017Z,11.52
2022-11-05T11:43:34.415Z,10.27
2022-11-05T11:48:31.584Z,11.15
2022-11-05T11:53:34.334Z,10.07
2022-11-05T12:03:29.618Z,10.05
2022-11-05T12:08:35.985Z,9.88
2022-11-05T12:13:47.573Z,12.85
2022-11-05T12:18:49.615Z,12.00
2022-11-05T12:23:57.834Z,9.68
2022-11-05T12:29:18.968Z,11.75
2022-11-05T12:34:32.562Z,8.90
2022-11-05T12:44:34.478Z,10.80
2022-11-05T12:49:40.921Z,11.10
2022-11-05T12:54:49.177Z,8.90
2022-11-05T12:59:51.377Z,10.13
2022-11-05T13:04:59.462Z,19.42
2022-11-05T13:09:59.237Z,8.85
2022-11-05T13:15:00.817Z,9.88
2022-11-05T13:19:57.006Z,10.43
2022-11-05T13:24:55.335Z,9.35
2022-11-05T13:29:53.244Z,12.18
2022-11-05T13:34:49.590Z,11.32
2022-11-05T13:39:52.273Z,10.25
2022-11-05T13:45:13.405Z,10.52
2022-11-05T13:50:17.187Z,9.80
2022-11-05T13:55:30.371Z,9.77
2022-11-05T14:00:28.314Z,8.75
2022-11-05T14:05:33.124Z,12.93
2022-11-05T14:10:32.281Z,10.13
2022-11-05T14:15:29.809Z,9.40
2022-11-05T14:20:31.925Z,9.90
2022-11-05T14:25:28.160Z,9.23
2022-11-05T14:30:41.398Z,11.15
2022-11-05T14:35:38.264Z,9.75
2022-11-05T14:40:38.728Z,9.52
2022-11-05T14:45:36.501Z,9.60
2022-11-05T14:50:40.032Z,11.50
2022-11-05T14:55:37.530Z,10.90
2022-11-05T15:00:40.338Z,13.35
2022-11-05T15:05:49.979Z,12.85
2022-11-05T15:10:47.983Z,13.15
2022-11-05T15:15:47.073Z,14.00
2022-11-05T15:20:45.093Z,14.30
2022-11-05T15:25:41.379Z,14.48
2022-11-05T15:30:37.739Z,14.30
2022-11-05T15:35:37.766Z,14.23
2022-11-05T15:40:34.369Z,15.73
2022-11-05T15:45:30.598Z,15.80
2022-11-05T15:50:26.878Z,15.93
2022-11-05T15:55:27.703Z,16.05
2022-11-05T16:00:25.338Z,19.00
2022-11-05T16:05:21.941Z,19.17
2022-11-05T16:10:20.049Z,18.65
2022-11-05T16:15:21.402Z,19.33
2022-11-05T16:20:17.752Z,18.33
2022-11-05T16:25:21.133Z,20.23
2022-11-05T16:30:18.399Z,19.15
2022-11-05T16:35:19.898Z,19.88
2022-11-05T16:40:19.036Z,19.00
2022-11-05T16:45:16.106Z,19.58
2022-11-05T16:50:14.596Z,17.42
2022-11-05T16:55:10.885Z,18.67
2022-11-05T17:00:07.670Z,18.85
2022-11-05T17:05:06.563Z,19.90
2022-11-05T17:10:03.091Z,19.73
2022-11-05T17:14:59.485Z,19.13
2022-11-05T17:19:55.750Z,19.58
2022-11-05T17:24:51.949Z,19.50
2022-11-05T17:29:48.231Z,19.80
2022-11-05T17:34:44.456Z,21.05
2022-11-05T17:39:40.733Z,21.95
2022-11-05T17:44:37.636Z,23.05
2022-11-05T17:49:33.953Z,21.15
2022-11-05T17:54:30.361Z,22.42
2022-11-05T17:59:26.690Z,22.95
2022-11-05T18:04:22.915Z,23.48
2022-11-05T18:09:19.231Z,22.52
2022-11-05T18:14:24.523Z,21.35
2022-11-05T18:19:20.972Z,22.05
2022-11-05T18:24:17.444Z,21.83
2022-11-05T18:29:13.646Z,21.17
2022-11-05T18:34:10.279Z,21.88
2022-11-05T18:39:07.184Z,21.30
2022-11-05T18:44:03.975Z,22.42
2022-11-05T18:49:00.643Z,20.75
2022-11-05T18:53:57.248Z,21.35
2022-11-05T18:59:14.558Z,23.00
2022-11-05T19:04:10.337Z,21.13
2022-11-05T19:09:08.526Z,19.98
2022-11-05T19:14:05.161Z,21.65
2022-11-05T19:19:02.460Z,19.75
2022-11-05T19:24:01.200Z,19.73
2022-11-05T19:29:01.682Z,20.17
2022-11-05T19:33:57.970Z,17.50
2022-11-05T19:38:57.279Z,17.85
2022-11-05T19:43:57.901Z,16.58
2022-11-05T19:48:56.557Z,16.55
2022-11-05T19:53:53.109Z,16.77
2022-11-05T19:58:49.534Z,18.38
2022-11-05T20:03:45.849Z,17.75
2022-11-05T20:09:07.133Z,19.73
2022-11-05T20:13:58.980Z,19.25
2022-11-05T20:18:56.767Z,18.92
2022-11-05T20:23:55.526Z,18.38
2022-11-05T20:28:51.996Z,19.05
2022-11-05T20:33:48.466Z,19.60
2022-11-05T20:38:55.285Z,21.40
2022-11-05T20:43:51.778Z,20.52
2022-11-05T20:48:48.381Z,21.45
2022-11-05T20:53:46.121Z,21.67
2022-11-05T20:58:42.431Z,22.02
2022-11-05T21:03:38.735Z,20.50
2022-11-05T21:08:35.489Z,20.95
2022-11-05T21:13:31.861Z,20.98
2022-11-05T21:18:30.013Z,20.73
2022-11-05T21:23:29.304Z,21.30
2022-11-05T21:28:25.514Z,21.02
2022-11-05T21:33:21.829Z,20.45
2022-11-05T21:38:18.176Z,19.55
2022-11-05T21:43:14.769Z,18.73
2022-11-05T21:48:11.603Z,19.85
2022-11-05T21:53:30.855Z,20.25
2022-11-05T21:58:45.745Z,19.98
2022-11-05T22:03:41.997Z,21.45
2022-11-05T22:08:38.257Z,22.45
2022-11-05T22:13:34.440Z,21.33
2022-11-05T22:18:30.720Z,20.95
2022-11-05T22:23:26.962Z,20.88
2022-11-05T22:28:23.183Z,21.90
2022-11-05T22:33:19.689Z,21.45
2022-11-05T22:38:15.970Z,22.77
2022-11-05T22:43:13.199Z,22.25
2022-11-05T22:48:09.691Z,19.77
2022-11-05T22:53:06.105Z,19.83
2022-11-05T22:58:02.307Z,20.55
2022-11-05T23:02:58.896Z,19.45
2022-11-05T23:08:14.258Z,17.67
2022-11-05T23:13:10.851Z,20.52
2022-11-05T23:18:26.999Z,19.45
2022-11-05T23:23:42.006Z,19.52
2022-11-05T23:28:38.288Z,17.83
2022-11-05T23:33:34.616Z,18.70
2022-11-05T23:38:33.771Z,17.60
2022-11-05T23:43:48.546Z,17.80
2022-11-05T23:48:44.774Z,17.55
2022-11-05T23:53:41.216Z,17.98
2022-11-05T23:58:37.952Z,17.88
